createdAt,value
2022-08-19T00:02:59.184Z,16.42
2022-08-19T00:07:01.458Z,15.55
2022-08-19T00:11:03.567Z,16.55
2022-08-19T00:15:07.807Z,16.13
2022-08-19T00:19:14.570Z,15.23
2022-08-19T00:23:17.050Z,15.07
2022-08-19T00:27:26.179Z,16.02
2022-08-19T00:31:29.091Z,15.35
2022-08-19T00:35:30.862Z,15.98
2022-08-19T00:39:32.585Z,15.25
2022-08-19T00:43:34.838Z,15.65
2022-08-19T00:48:06.077Z,17.17
2022-08-19T00:52:15.993Z,15.90
2022-08-19T00:56:18.405Z,17.05
2022-08-19T01:00:32.960Z,16.25
2022-08-19T01:04:43.883Z,16.73
2022-08-19T01:08:57.915Z,18.30
2022-08-19T01:13:18.522Z,16.30
2022-08-19T01:21:54.140Z,16.45
2022-08-19T01:26:02.437Z,15.80
2022-08-19T01:30:34.020Z,16.20
2022-08-19T01:34:39.948Z,15.00
2022-08-19T01:38:44.414Z,14.75
2022-08-19T01:42:46.330Z,15.57
2022-08-19T01:46:49.431Z,14.77
2022-08-19T01:50:51.108Z,14.88
2022-08-19T01:54:53.068Z,15.23
2022-08-19T01:59:02.930Z,13.80
2022-08-19T02:03:04.579Z,16.02
2022-08-19T02:07:08.824Z,16.15
2022-08-19T02:11:27.580Z,15.07
2022-08-19T02:15:29.338Z,15.18
2022-08-19T02:19:33.541Z,16.45
2022-08-19T02:23:35.729Z,15.68
2022-08-19T02:27:52.488Z,16.33
2022-08-19T02:31:54.614Z,16.45
2022-08-19T02:35:56.396Z,16.83
2022-08-19T02:40:04.383Z,16.30
2022-08-19T02:44:29.068Z,15.45
2022-08-19T02:48:55.719Z,16.15
2022-08-19T02:52:58.477Z,16.98
2022-08-19T03:01:03.311Z,17.00
2022-08-19T03:05:10.569Z,16.67
2022-08-19T03:09:12.636Z,17.25
2022-08-19T03:13:18.893Z,17.23
2022-08-19T03:17:21.525Z,16.00
2022-08-19T03:21:26.157Z,16.85
2022-08-19T03:25:27.861Z,16.83
2022-08-19T03:29:32.681Z,16.92
2022-08-19T03:33:35.334Z,17.33
2022-08-19T03:37:37.810Z,17.80
2022-08-19T03:41:48.153Z,17.35
2022-08-19T03:45:50.816Z,17.08
2022-08-19T03:49:52.496Z,16.55
2022-08-19T03:53:56.176Z,16.17
2022-08-19T03:57:59.370Z,16.60
2022-08-19T04:02:10.392Z,16.88
2022-08-19T04:06:17.198Z,16.95
2022-08-19T04:10:18.864Z,17.20
2022-08-19T04:14:23.677Z,16.65
2022-08-19T04:18:25.339Z,17.10
2022-08-19T04:22:26.971Z,17.55
2022-08-19T04:26:33.979Z,16.92
2022-08-19T04:30:48.598Z,16.80
2022-08-19T04:35:03.209Z,16.85
2022-08-19T04:39:17.479Z,16.90
2022-08-19T04:43:19.201Z,16.65
2022-08-19T04:47:47.403Z,18.38
2022-08-19T04:51:44.923Z,17.60
2022-08-19T04:55:46.631Z,17.70
2022-08-19T04:59:49.447Z,17.02
2022-08-19T05:03:51.592Z,17.83
2022-08-19T05:07:53.350Z,18.15
2022-08-19T05:11:55.055Z,17.80
2022-08-19T05:15:58.678Z,17.83
2022-08-19T05:20:20.228Z,18.15
2022-08-19T05:24:23.714Z,16.90
2022-08-19T05:28:25.431Z,17.98
2022-08-19T05:32:27.208Z,17.20
2022-08-19T05:36:34.118Z,18.30
2022-08-19T05:40:39.491Z,18.25
2022-08-19T05:44:45.183Z,18.83
2022-08-19T05:48:47.042Z,17.67
2022-08-19T05:52:50.141Z,16.77
2022-08-19T05:56:54.099Z,17.80
2022-08-19T06:00:55.893Z,18.25
2022-08-19T06:04:57.729Z,17.95
2022-08-19T06:08:59.975Z,18.05
2022-08-19T06:13:01.610Z,18.60
2022-08-19T06:17:07.139Z,17.95
2022-08-19T06:21:09.381Z,18.40
2022-08-19T06:25:14.102Z,16.80
2022-08-19T06:29:23.782Z,15.90
2022-08-19T06:33:31.635Z,15.48
2022-08-19T06:37:43.747Z,15.18
2022-08-19T06:41:52.439Z,13.75
2022-08-19T06:45:56.574Z,14.73
2022-08-19T06:50:08.598Z,13.37
2022-08-19T06:58:59.023Z,13.68
2022-08-19T07:03:04.523Z,12.93
2022-08-19T07:07:21.298Z,11.55
2022-08-19T07:11:23.435Z,10.68
2022-08-19T07:19:31.110Z,10.43
2022-08-19T07:23:33.506Z,11.07
2022-08-19T07:27:35.478Z,10.98
2022-08-19T07:31:38.060Z,10.60
2022-08-19T07:35:40.421Z,9.30
2022-08-19T07:39:42.255Z,9.50
2022-08-19T07:43:44.613Z,10.57
2022-08-19T07:47:58.621Z,9.20
2022-08-19T07:52:09.042Z,9.98
2022-08-19T07:56:11.281Z,9.57
2022-08-19T08:00:21.685Z,9.43
2022-08-19T08:05:02.075Z,9.23
2022-08-19T08:09:12.253Z,8.18
2022-08-19T08:13:14.251Z,8.18
2022-08-19T08:21:47.931Z,7.43
2022-08-19T08:25:50.308Z,7.05
2022-08-19T08:29:52.017Z,6.97
2022-08-19T08:33:57.183Z,7.53
2022-08-19T08:38:00.194Z,8.48
2022-08-19T08:42:28.642Z,7.35
2022-08-19T08:47:02.559Z,5.90
2022-08-19T08:51:10.164Z,5.05
2022-08-19T08:55:16.278Z,6.85
2022-08-19T08:59:24.053Z,5.57
2022-08-19T09:03:31.671Z,5.80
2022-08-19T09:07:57.950Z,5.15
2022-08-19T09:12:29.512Z,5.60
2022-08-19T09:16:31.245Z,5.70
2022-08-19T09:20:33.384Z,5.65
2022-08-19T09:24:36.812Z,5.38
2022-08-19T09:28:38.423Z,5.13
2022-08-19T09:32:43.344Z,4.95
2022-08-19T09:36:44.958Z,5.35
2022-08-19T09:40:46.670Z,6.30
2022-08-19T09:44:53.146Z,6.63
2022-08-19T09:48:55.519Z,5.72
2022-08-19T09:52:58.074Z,5.82
2022-08-19T09:57:04.618Z,6.00
2022-08-19T10:01:10.597Z,6.82
2022-08-19T10:05:31.107Z,6.55
2022-08-19T10:09:34.419Z,7.07
2022-08-19T10:13:42.392Z,7.20
2022-08-19T10:17:54.959Z,7.93
2022-08-19T10:22:00.306Z,9.18
2022-08-19T10:26:02.449Z,7.35
2022-08-19T10:30:04.863Z,7.25
2022-08-19T10:34:17.551Z,7.25
2022-08-19T10:38:31.690Z,8.35
2022-08-19T10:42:36.136Z,6.82
2022-08-19T10:46:45.145Z,7.55
2022-08-19T10:51:22.647Z,6.93
2022-08-19T10:55:43.877Z,7.07
2022-08-19T10:59:45.601Z,6.70
2022-08-19T11:03:47.181Z,7.50
2022-08-19T11:07:52.406Z,7.65
2022-08-19T11:11:55.002Z,6.90
2022-08-19T11:16:01.795Z,7.47
2022-08-19T11:20:07.746Z,9.05
2022-08-19T11:24:12.890Z,7.93
2022-08-19T11:28:14.616Z,7.18
2022-08-19T11:32:16.894Z,7.65
2022-08-19T11:36:20.614Z,7.10
2022-08-19T11:40:22.237Z,8.15
2022-08-19T11:44:23.932Z,8.52
2022-08-19T11:48:26.596Z,8.63
2022-08-19T11:52:28.403Z,9.93
2022-08-19T11:56:30.114Z,7.70
2022-08-19T12:00:31.726Z,8.00
2022-08-19T12:04:33.319Z,8.07
2022-08-19T12:08:35.384Z,8.50
2022-08-19T12:12:41.442Z,9.45
2022-08-19T12:16:49.102Z,10.18
2022-08-19T12:20:57.980Z,10.47
2022-08-19T12:24:59.553Z,11.77
2022-08-19T12:29:01.242Z,11.38
2022-08-19T12:33:03.016Z,10.73
2022-08-19T12:41:10.556Z,9.85
2022-08-19T12:45:14.477Z,10.13
2022-08-19T12:49:51.934Z,9.18
2022-08-19T12:53:39.145Z,8.73
2022-08-19T12:57:41.761Z,7.45
2022-08-19T13:01:44.761Z,7.75
2022-08-19T13:05:46.376Z,6.55
2022-08-19T13:13:52.047Z,6.35
2022-08-19T13:17:54.889Z,6.65
2022-08-19T13:22:00.035Z,6.93
2022-08-19T13:26:05.929Z,6.75
2022-08-19T13:30:29.394Z,6.13
2022-08-19T13:34:36.607Z,5.72
2022-08-19T13:38:39.018Z,5.57
2022-08-19T13:42:41.487Z,5.95
2022-08-19T13:46:46.106Z,6.10
2022-08-19T13:50:50.283Z,6.88
2022-08-19T13:54:51.879Z,5.85
2022-08-19T13:58:54.781Z,5.25
2022-08-19T14:03:01.048Z,5.00
2022-08-19T14:07:02.621Z,5.25
2022-08-19T14:11:06.681Z,4.88
2022-08-19T14:15:11.093Z,4.80
2022-08-19T14:19:12.715Z,4.93
2022-08-19T14:23:14.723Z,4.65
2022-08-19T14:27:16.347Z,4.63
2022-08-19T14:31:20.224Z,4.57
2022-08-19T14:35:23.002Z,4.50
2022-08-19T14:39:24.738Z,4.85
2022-08-19T14:43:26.358Z,4.53
2022-08-19T14:47:28.251Z,4.32
2022-08-19T14:51:30.196Z,4.40
2022-08-19T14:55:32.802Z,5.05
2022-08-19T14:59:36.204Z,5.50
2022-08-19T15:03:38.217Z,5.53
2022-08-19T15:07:40.846Z,5.72
2022-08-19T15:11:43.703Z,5.40
2022-08-19T15:15:46.431Z,5.75
2022-08-19T15:19:48.085Z,5.65
2022-08-19T15:23:51.157Z,6.15
2022-08-19T15:27:53.922Z,5.68
2022-08-19T15:31:58.928Z,6.15
2022-08-19T15:36:00.529Z,6.35
2022-08-19T15:40:02.398Z,6.00
2022-08-19T15:48:10.663Z,5.10
2022-08-19T15:52:12.279Z,5.32
2022-08-19T15:56:15.513Z,5.13
2022-08-19T16:00:35.957Z,5.50
2022-08-19T16:04:55.958Z,5.00
2022-08-19T16:09:02.983Z,5.40
2022-08-19T16:13:06.135Z,4.85
2022-08-19T16:17:11.603Z,5.07
2022-08-19T16:21:17.354Z,5.00
2022-08-19T16:25:18.928Z,4.95
2022-08-19T16:29:34.563Z,4.55
2022-08-19T16:33:41.169Z,5.00
2022-08-19T16:37:42.778Z,5.03
2022-08-19T16:41:46.083Z,4.85
2022-08-19T16:45:54.849Z,4.80
2022-08-19T16:49:56.563Z,6.00
2022-08-19T16:53:58.163Z,5.80
2022-08-19T16:58:04.477Z,5.55
2022-08-19T17:02:06.056Z,5.57
2022-08-19T17:06:16.159Z,6.10
2022-08-19T17:10:22.403Z,5.75
2022-08-19T17:14:24.008Z,6.00
2022-08-19T17:18:26.422Z,6.25
2022-08-19T17:22:35.795Z,6.00
2022-08-19T17:26:37.688Z,6.53
2022-08-19T17:30:39.322Z,6.07
2022-08-19T17:34:41.298Z,6.35
2022-08-19T17:38:42.928Z,6.25
2022-08-19T17:42:45.454Z,6.53
2022-08-19T17:46:47.160Z,6.63
2022-08-19T17:50:48.751Z,7.22
2022-08-19T17:54:50.372Z,6.70
2022-08-19T17:58:59.571Z,6.53
2022-08-19T18:03:04.924Z,6.30
2022-08-19T18:07:09.229Z,6.05
2022-08-19T18:11:11.675Z,6.32
2022-08-19T18:15:13.810Z,6.75
2022-08-19T18:19:15.443Z,6.18
2022-08-19T18:23:45.468Z,5.77
2022-08-19T18:27:39.025Z,5.97
2022-08-19T18:31:40.691Z,6.32
2022-08-19T18:35:48.684Z,5.13
2022-08-19T18:40:09.117Z,5.20
2022-08-19T18:44:29.272Z,5.32
2022-08-19T18:48:49.400Z,5.00
2022-08-19T18:52:50.983Z,4.43
2022-08-19T18:56:55.766Z,4.83
2022-08-19T19:00:58.739Z,5.03
2022-08-19T19:05:03.855Z,5.30
2022-08-19T19:09:15.479Z,5.15
2022-08-19T19:13:17.087Z,5.25
2022-08-19T19:17:22.972Z,5.33
2022-08-19T19:21:26.148Z,5.50
2022-08-19T19:25:27.769Z,5.25
2022-08-19T19:29:52.281Z,5.78
2022-08-19T19:33:55.847Z,5.78
2022-08-19T19:37:58.138Z,8.00
2022-08-19T19:42:00.290Z,7.55
2022-08-19T19:46:01.936Z,6.85
2022-08-19T19:50:14.841Z,7.03
2022-08-19T19:54:22.968Z,7.20
2022-08-19T19:58:30.492Z,7.28
2022-08-19T20:02:32.147Z,6.28
2022-08-19T20:06:34.092Z,6.53
2022-08-19T20:10:41.129Z,6.60
2022-08-19T20:14:42.708Z,7.10
2022-08-19T20:18:44.451Z,6.63
2022-08-19T20:22:47.568Z,6.93
2022-08-19T20:26:53.435Z,8.75
2022-08-19T20:30:55.858Z,7.22
2022-08-19T20:35:01.229Z,6.97
2022-08-19T20:39:04.985Z,7.28
2022-08-19T20:43:12.968Z,6.25
2022-08-19T20:47:14.795Z,6.82
2022-08-19T20:51:17.042Z,6.43
2022-08-19T20:55:18.724Z,7.07
2022-08-19T20:59:21.969Z,6.72
2022-08-19T21:07:38.844Z,6.30
2022-08-19T21:11:41.537Z,8.00
2022-08-19T21:15:44.500Z,7.00
2022-08-19T21:19:47.027Z,7.53
2022-08-19T21:23:49.736Z,7.00
2022-08-19T21:27:55.800Z,7.15
2022-08-19T21:32:02.133Z,7.30
2022-08-19T21:36:05.271Z,6.85
2022-08-19T21:40:08.161Z,7.20
2022-08-19T21:44:10.150Z,6.68
2022-08-19T21:48:14.739Z,7.33
2022-08-19T21:52:24.972Z,7.32
2022-08-19T21:56:26.673Z,6.93
2022-08-19T22:00:32.225Z,8.18
2022-08-19T22:04:34.651Z,8.00
2022-08-19T22:08:37.023Z,7.00
2022-08-19T22:12:47.283Z,7.05
2022-08-19T22:16:59.386Z,7.13
2022-08-19T22:21:02.437Z,7.20
2022-08-19T22:25:09.557Z,6.78
2022-08-19T22:29:11.562Z,6.82
2022-08-19T22:33:21.294Z,7.60
2022-08-19T22:37:23.474Z,6.82
2022-08-19T22:41:25.562Z,7.57
2022-08-19T22:45:28.208Z,7.15
2022-08-19T22:49:32.416Z,7.05
2022-08-19T22:53:43.731Z,6.55
2022-08-19T22:57:45.938Z,7.30
2022-08-19T23:01:47.714Z,6.47
2022-08-19T23:06:00.230Z,6.35
2022-08-19T23:10:08.902Z,5.97
2022-08-19T23:14:12.675Z,6.50
2022-08-19T23:18:14.991Z,6.40
2022-08-19T23:22:24.859Z,7.18
2022-08-19T23:31:09.075Z,6.20
2022-08-19T23:35:13.927Z,5.43
2022-08-19T23:39:28.030Z,6.57
2022-08-19T23:43:37.005Z,5.65
2022-08-19T23:48:00.224Z,5.68
2022-08-19T23:52:18.701Z,5.82
2022-08-19T23:56:28.970Z,5.57
